createdAt,value
2022-09-09T00:01:48.403Z,140.85
2022-09-09T00:04:32.843Z,102.68
2022-09-09T00:07:25.250Z,139.25
2022-09-09T00:09:55.605Z,140.57
2022-09-09T00:12:43.298Z,139.82
2022-09-09T00:15:22.092Z,142.55
2022-09-09T00:18:15.822Z,139.70
2022-09-09T00:20:51.914Z,141.82
2022-09-09T00:23:32.634Z,143.13
2022-09-09T00:26:24.989Z,137.13
2022-09-09T00:29:05.847Z,135.68
2022-09-09T00:31:34.235Z,141.38
2022-09-09T00:34:14.049Z,142.25
2022-09-09T00:36:44.823Z,138.98
2022-09-09T00:39:24.742Z,140.40
2022-09-09T00:41:55.317Z,139.00
2022-09-09T00:44:31.681Z,141.75
2022-09-09T00:47:22.339Z,139.00
2022-09-09T00:50:36.234Z,142.38
2022-09-09T00:53:40.632Z,106.82
2022-09-09T00:56:17.749Z,138.27
2022-09-09T00:59:04.206Z,134.68
2022-09-09T01:01:31.577Z,140.40
2022-09-09T01:04:01.743Z,136.18
2022-09-09T01:06:35.200Z,138.10
2022-09-09T01:12:12.903Z,138.75
2022-09-09T01:14:46.146Z,134.38
2022-09-09T01:17:32.361Z,136.43
2022-09-09T01:20:24.324Z,139.27
2022-09-09T01:23:12.096Z,135.63
2022-09-09T01:25:45.609Z,135.45
2022-09-09T01:28:29.068Z,137.52
2022-09-09T01:31:07.859Z,134.23
2022-09-09T01:33:42.328Z,134.63
2022-09-09T01:36:21.080Z,137.45
2022-09-09T01:38:51.312Z,138.18
2022-09-09T01:41:19.622Z,135.40
2022-09-09T01:44:10.788Z,138.60
2022-09-09T01:46:39.951Z,134.23
2022-09-09T01:49:14.172Z,135.75
2022-09-09T01:51:44.079Z,139.55
2022-09-09T01:54:14.424Z,100.82
2022-09-09T01:57:07.482Z,135.43
2022-09-09T02:02:43.217Z,136.52
2022-09-09T02:05:35.932Z,98.30
2022-09-09T02:08:12.222Z,135.18
2022-09-09T02:11:02.903Z,137.40
2022-09-09T02:13:46.656Z,136.80
2022-09-09T02:16:26.044Z,135.35
2022-09-09T02:19:15.458Z,136.27
2022-09-09T02:22:05.888Z,134.68
2022-09-09T02:24:37.854Z,138.10
2022-09-09T02:27:21.587Z,135.90
2022-09-09T02:29:52.614Z,133.70
2022-09-09T02:32:31.737Z,132.35
2022-09-09T02:35:09.898Z,132.02
2022-09-09T02:37:41.153Z,136.65
2022-09-09T02:40:12.324Z,135.75
2022-09-09T02:42:45.151Z,134.60
2022-09-09T02:45:16.763Z,135.43
2022-09-09T02:48:07.939Z,135.45
2022-09-09T02:50:44.986Z,134.27
2022-09-09T02:53:22.072Z,137.80
2022-09-09T02:55:59.178Z,134.38
2022-09-09T02:58:27.699Z,140.02
2022-09-09T03:01:02.376Z,136.52
2022-09-09T03:03:31.508Z,131.95
2022-09-09T03:06:01.127Z,132.45
2022-09-09T03:08:29.869Z,130.70
2022-09-09T03:11:02.531Z,131.50
2022-09-09T03:13:33.187Z,129.73
2022-09-09T03:16:01.024Z,130.00
2022-09-09T03:18:31.174Z,135.20
2022-09-09T03:20:59.290Z,132.98
2022-09-09T03:23:26.815Z,132.43
2022-09-09T03:25:58.047Z,135.40
2022-09-09T03:28:32.650Z,131.05
2022-09-09T03:31:03.980Z,131.18
2022-09-09T03:33:37.843Z,135.75
2022-09-09T03:36:07.134Z,135.70
2022-09-09T03:38:35.779Z,133.40
2022-09-09T03:41:03.842Z,133.13
2022-09-09T03:43:32.486Z,133.48
2022-09-09T03:46:00.011Z,133.75
2022-09-09T03:48:29.463Z,133.20
2022-09-09T03:50:59.062Z,133.30
2022-09-09T03:53:28.243Z,129.85
2022-09-09T03:56:01.494Z,129.82
2022-09-09T03:58:33.376Z,131.45
2022-09-09T04:01:11.974Z,128.57
2022-09-09T04:03:41.193Z,133.23
2022-09-09T04:06:15.844Z,130.50
2022-09-09T04:08:49.623Z,132.10
2022-09-09T04:11:17.826Z,131.60
2022-09-09T04:13:46.975Z,131.65
2022-09-09T04:16:15.860Z,131.85
2022-09-09T04:18:44.817Z,130.80
2022-09-09T04:21:14.489Z,130.43
2022-09-09T04:23:41.781Z,138.32
2022-09-09T04:26:10.773Z,132.40
2022-09-09T04:28:39.273Z,138.75
2022-09-09T04:31:19.753Z,135.85
2022-09-09T04:33:48.930Z,139.23
2022-09-09T04:36:26.672Z,133.43
2022-09-09T04:38:59.157Z,132.38
2022-09-09T04:41:26.849Z,134.93
2022-09-09T04:43:55.111Z,133.00
2022-09-09T04:46:24.039Z,136.38
2022-09-09T04:48:53.326Z,133.57
2022-09-09T04:51:21.096Z,128.68
2022-09-09T04:53:51.880Z,137.70
2022-09-09T04:56:21.258Z,137.25
2022-09-09T04:58:52.460Z,152.27
2022-09-09T05:01:24.434Z,142.20
2022-09-09T05:03:54.476Z,151.30
2022-09-09T05:06:24.297Z,143.40
2022-09-09T05:08:56.646Z,112.50
2022-09-09T05:11:29.277Z,147.90
2022-09-09T05:14:02.376Z,152.43
2022-09-09T05:16:33.188Z,148.05
2022-09-09T05:19:00.797Z,156.07
2022-09-09T05:21:38.217Z,150.85
2022-09-09T05:24:05.662Z,155.98
2022-09-09T05:26:33.613Z,152.20
2022-09-09T05:29:01.692Z,155.57
2022-09-09T05:31:31.925Z,163.25
2022-09-09T05:34:02.591Z,168.13
2022-09-09T05:36:29.958Z,172.98
2022-09-09T05:38:58.027Z,180.30
2022-09-09T05:41:27.684Z,187.02
2022-09-09T05:43:57.699Z,187.40
2022-09-09T05:46:26.354Z,201.75
2022-09-09T05:48:55.314Z,200.23
2022-09-09T05:51:31.374Z,216.52
2022-09-09T05:54:02.904Z,227.85
2022-09-09T05:56:34.076Z,230.13
2022-09-09T05:59:02.186Z,228.40
2022-09-09T06:01:32.977Z,210.60
2022-09-09T06:04:02.237Z,235.13
2022-09-09T06:06:37.977Z,230.98
2022-09-09T06:09:11.632Z,233.95
2022-09-09T06:11:42.818Z,224.00
2022-09-09T06:14:11.338Z,245.13
2022-09-09T06:16:40.485Z,238.02
2022-09-09T06:19:15.619Z,249.38
2022-09-09T06:21:45.446Z,228.98
2022-09-09T06:24:14.994Z,226.07
2022-09-09T06:26:43.013Z,207.85
2022-09-09T06:29:17.842Z,204.30
2022-09-09T06:31:46.101Z,186.85
2022-09-09T06:34:16.674Z,184.27
2022-09-09T06:36:48.316Z,172.63
2022-09-09T06:39:16.666Z,170.35
2022-09-09T06:41:45.617Z,176.13
2022-09-09T06:44:35.916Z,166.70
2022-09-09T06:47:06.304Z,165.77
2022-09-09T06:49:35.307Z,169.05
2022-09-09T06:52:07.658Z,119.77
2022-09-09T06:54:38.650Z,171.35
2022-09-09T06:57:27.106Z,164.38
2022-09-09T06:59:57.140Z,167.60
2022-09-09T07:02:25.951Z,170.45
2022-09-09T07:04:54.252Z,177.60
2022-09-09T07:07:21.650Z,182.32
2022-09-09T07:09:50.379Z,174.68
2022-09-09T07:12:17.782Z,186.02
2022-09-09T07:14:53.123Z,195.07
2022-09-09T07:17:20.460Z,192.63
2022-09-09T07:19:48.676Z,205.68
2022-09-09T07:22:17.530Z,216.00
2022-09-09T07:24:46.230Z,219.18
2022-09-09T07:27:14.951Z,226.95
2022-09-09T07:29:42.847Z,222.35
2022-09-09T07:32:11.160Z,216.88
2022-09-09T07:34:39.302Z,197.32
2022-09-09T07:37:10.118Z,203.32
2022-09-09T07:39:40.531Z,198.90
2022-09-09T07:42:08.103Z,186.38
2022-09-09T07:44:37.543Z,177.63
2022-09-09T07:47:09.656Z,178.23
2022-09-09T07:49:44.428Z,176.88
2022-09-09T07:52:14.859Z,185.70
2022-09-09T07:54:47.080Z,178.50
2022-09-09T07:57:16.636Z,177.10
2022-09-09T07:59:44.125Z,187.63
2022-09-09T08:02:13.191Z,180.20
2022-09-09T08:04:41.465Z,176.82
2022-09-09T08:07:09.012Z,177.60
2022-09-09T08:09:45.024Z,180.63
2022-09-09T08:12:19.543Z,182.75
2022-09-09T08:14:46.904Z,185.18
2022-09-09T08:17:14.137Z,182.85
2022-09-09T08:19:43.039Z,172.18
2022-09-09T08:22:14.783Z,172.88
2022-09-09T08:24:42.246Z,179.88
2022-09-09T08:27:11.087Z,184.15
2022-09-09T08:29:40.053Z,178.43
2022-09-09T08:32:07.582Z,184.85
2022-09-09T08:34:41.383Z,186.23
2022-09-09T08:37:13.479Z,191.02
2022-09-09T08:39:42.740Z,191.60
2022-09-09T08:42:44.595Z,198.27
2022-09-09T08:45:22.064Z,195.98
2022-09-09T08:48:01.590Z,199.30
2022-09-09T08:50:32.819Z,194.55
2022-09-09T08:53:26.145Z,194.90
2022-09-09T08:56:00.891Z,202.05
2022-09-09T08:58:54.449Z,138.98
2022-09-09T09:01:44.098Z,208.38
2022-09-09T09:04:39.961Z,218.05
2022-09-09T09:07:32.837Z,216.27
2022-09-09T09:10:42.611Z,213.68
2022-09-09T09:13:22.285Z,205.95
2022-09-09T09:16:01.819Z,218.07
2022-09-09T09:18:29.959Z,229.15
2022-09-09T09:21:35.889Z,232.05
2022-09-09T09:24:05.775Z,221.07
2022-09-09T09:26:36.722Z,212.15
2022-09-09T09:29:14.199Z,220.35
2022-09-09T09:31:50.267Z,225.65
2022-09-09T09:34:20.013Z,226.95
2022-09-09T09:36:56.821Z,215.82
2022-09-09T09:42:24.799Z,201.15
2022-09-09T09:44:54.867Z,191.10
2022-09-09T09:47:28.087Z,203.98
2022-09-09T09:50:20.515Z,211.48
2022-09-09T09:53:03.411Z,208.43
2022-09-09T09:55:36.027Z,201.75
2022-09-09T09:58:08.352Z,205.43
2022-09-09T10:00:50.337Z,202.00
2022-09-09T10:03:27.882Z,197.75
2022-09-09T10:05:57.480Z,204.88
2022-09-09T10:08:29.252Z,206.10
2022-09-09T10:11:02.841Z,208.27
2022-09-09T10:16:20.504Z,211.40
2022-09-09T10:19:26.262Z,215.35
2022-09-09T10:22:15.269Z,208.65
2022-09-09T10:24:48.562Z,207.02
2022-09-09T10:27:40.989Z,247.60
2022-09-09T10:30:25.319Z,252.10
2022-09-09T10:33:03.582Z,287.35
2022-09-09T10:35:37.950Z,322.65
2022-09-09T10:38:37.775Z,330.75
2022-09-09T10:41:11.249Z,365.75
2022-09-09T10:44:02.081Z,375.80
2022-09-09T10:47:08.226Z,673.25
2022-09-09T10:50:07.433Z,727.03
2022-09-09T10:53:01.378Z,727.30
2022-09-09T10:55:52.086Z,719.40
2022-09-09T10:58:26.639Z,727.97
2022-09-09T11:01:03.520Z,762.65
2022-09-09T11:03:34.603Z,783.28
2022-09-09T11:06:19.528Z,760.72
2022-09-09T11:08:47.578Z,737.75
2022-09-09T11:11:31.068Z,733.28
2022-09-09T11:14:21.781Z,719.25
2022-09-09T11:17:06.026Z,742.58
2022-09-09T11:19:36.333Z,563.22
2022-09-09T11:22:30.560Z,548.60
2022-09-09T11:25:01.489Z,517.72
2022-09-09T11:27:33.056Z,498.92
2022-09-09T11:30:37.631Z,465.70
2022-09-09T11:33:38.798Z,541.10
2022-09-09T11:36:31.431Z,536.22
2022-09-09T11:39:22.777Z,651.88
2022-09-09T11:41:50.686Z,678.47
2022-09-09T11:44:28.970Z,603.28
2022-09-09T11:46:56.339Z,667.85
2022-09-09T11:49:43.406Z,660.47
2022-09-09T11:52:43.858Z,487.15
2022-09-09T11:55:28.232Z,543.05
2022-09-09T11:58:15.131Z,564.70
2022-09-09T12:00:51.150Z,554.70
2022-09-09T12:03:54.015Z,546.50
2022-09-09T12:06:41.041Z,514.60
2022-09-09T12:09:18.324Z,476.00
2022-09-09T12:11:45.691Z,520.13
2022-09-09T12:14:37.555Z,453.35
2022-09-09T12:17:17.775Z,502.63
2022-09-09T12:19:46.737Z,542.75
2022-09-09T12:22:49.737Z,541.78
2022-09-09T12:25:25.957Z,478.17
2022-09-09T12:28:09.902Z,469.25
2022-09-09T12:30:50.196Z,431.02
2022-09-09T12:33:21.108Z,372.63
2022-09-09T12:35:56.638Z,386.95
2022-09-09T12:38:44.505Z,392.33
2022-09-09T12:41:23.429Z,375.05
2022-09-09T12:43:51.972Z,399.50
2022-09-09T12:46:47.733Z,396.17
2022-09-09T12:49:39.633Z,365.55
2022-09-09T12:52:17.476Z,384.38
2022-09-09T12:54:52.661Z,387.65
2022-09-09T12:57:23.082Z,395.48
2022-09-09T12:59:50.406Z,486.83
2022-09-09T13:02:35.589Z,434.73
2022-09-09T13:05:19.113Z,418.52
2022-09-09T13:07:46.493Z,392.30
2022-09-09T13:10:21.492Z,380.08
2022-09-09T13:12:59.453Z,360.77
2022-09-09T13:15:30.096Z,372.02
2022-09-09T13:18:07.447Z,377.23
2022-09-09T13:20:34.961Z,387.58
2022-09-09T13:23:03.404Z,390.70
2022-09-09T13:25:31.408Z,368.50
2022-09-09T13:28:06.635Z,373.30
2022-09-09T13:30:41.425Z,402.20
2022-09-09T13:33:15.663Z,449.02
2022-09-09T13:36:06.647Z,400.42
2022-09-09T13:38:39.442Z,390.55
2022-09-09T13:41:09.792Z,378.80
2022-09-09T13:43:45.833Z,372.15
2022-09-09T13:46:41.468Z,374.83
2022-09-09T13:49:11.550Z,361.75
2022-09-09T13:51:43.426Z,350.40
2022-09-09T13:54:12.261Z,345.42
2022-09-09T13:56:41.524Z,341.90
2022-09-09T13:59:17.344Z,347.13
2022-09-09T14:01:45.467Z,339.65
2022-09-09T14:04:13.439Z,333.67
2022-09-09T14:06:41.458Z,275.70
2022-09-09T14:09:11.882Z,249.85
2022-09-09T14:11:39.559Z,255.68
2022-09-09T14:14:06.869Z,261.58
2022-09-09T14:16:34.654Z,264.13
2022-09-09T14:19:02.339Z,247.98
2022-09-09T14:21:29.888Z,265.08
2022-09-09T14:23:59.155Z,278.20
2022-09-09T14:26:27.424Z,273.50
2022-09-09T14:28:56.143Z,270.65
2022-09-09T14:31:27.116Z,134.52
2022-09-09T14:33:54.635Z,124.28
2022-09-09T14:36:22.184Z,125.93
2022-09-09T14:38:49.711Z,138.48
2022-09-09T14:41:19.679Z,133.40
2022-09-09T14:43:47.732Z,131.95
2022-09-09T14:46:19.949Z,134.13
2022-09-09T14:48:51.066Z,136.25
2022-09-09T14:51:20.813Z,126.70
2022-09-09T14:53:48.290Z,125.25
2022-09-09T14:56:22.312Z,117.00
2022-09-09T14:58:50.436Z,117.03
2022-09-09T15:01:20.392Z,116.03
2022-09-09T15:03:57.226Z,113.72
2022-09-09T15:06:25.934Z,117.35
2022-09-09T15:08:54.789Z,114.82
2022-09-09T15:11:25.751Z,117.43
2022-09-09T15:13:54.391Z,112.38
2022-09-09T15:16:23.698Z,114.28
2022-09-09T15:18:55.268Z,108.25
2022-09-09T15:21:25.824Z,109.75
2022-09-09T15:23:54.738Z,114.35
2022-09-09T15:26:22.312Z,108.57
2022-09-09T15:28:51.855Z,111.97
2022-09-09T15:31:29.430Z,105.45
2022-09-09T15:34:04.278Z,106.80
2022-09-09T15:36:34.929Z,107.25
2022-09-09T15:39:03.865Z,106.00
2022-09-09T15:41:32.778Z,106.82
2022-09-09T15:44:01.629Z,108.03
2022-09-09T15:46:39.635Z,105.97
2022-09-09T15:49:12.524Z,103.53
2022-09-09T15:51:43.858Z,103.13
2022-09-09T15:54:18.587Z,105.55
2022-09-09T15:56:47.748Z,102.13
2022-09-09T15:59:15.919Z,101.85
2022-09-09T16:01:45.158Z,103.47
2022-09-09T16:04:13.281Z,100.70
2022-09-09T16:06:41.053Z,100.65
2022-09-09T16:09:09.336Z,101.68
2022-09-09T16:11:39.316Z,100.00
2022-09-09T16:14:07.799Z,103.18
2022-09-09T16:16:36.441Z,101.80
2022-09-09T16:19:10.610Z,102.50
2022-09-09T16:21:43.922Z,97.22
2022-09-09T16:24:14.062Z,103.47
2022-09-09T16:26:47.875Z,97.28
2022-09-09T16:29:16.825Z,101.18
2022-09-09T16:31:45.037Z,102.93
2022-09-09T16:34:12.720Z,99.20
2022-09-09T16:36:41.779Z,100.90
2022-09-09T16:39:12.700Z,98.50
2022-09-09T16:41:41.574Z,102.28
2022-09-09T16:44:11.080Z,101.97
2022-09-09T16:46:43.515Z,102.10
2022-09-09T16:49:13.857Z,104.28
2022-09-09T16:51:44.833Z,99.68
2022-09-09T16:54:15.265Z,102.63
2022-09-09T16:56:47.712Z,98.30
2022-09-09T16:59:20.534Z,95.25
2022-09-09T17:01:51.407Z,72.70
2022-09-09T17:04:26.503Z,98.00
2022-09-09T17:06:55.690Z,98.72
2022-09-09T17:09:24.452Z,102.40
2022-09-09T17:11:53.380Z,97.22
2022-09-09T17:14:23.672Z,98.03
2022-09-09T17:16:51.209Z,96.28
2022-09-09T17:19:18.867Z,96.75
2022-09-09T17:24:36.585Z,96.95
2022-09-09T17:27:04.849Z,96.28
2022-09-09T17:29:32.218Z,97.90
2022-09-09T17:31:59.536Z,94.63
2022-09-09T17:34:27.072Z,98.97
2022-09-09T17:36:54.437Z,96.93
2022-09-09T17:39:21.787Z,93.25
2022-09-09T17:41:49.911Z,96.75
2022-09-09T17:44:17.491Z,93.63
2022-09-09T17:46:46.461Z,95.05
2022-09-09T17:49:16.532Z,98.50
2022-09-09T17:51:45.070Z,91.32
2022-09-09T17:54:15.931Z,93.50
2022-09-09T17:56:43.749Z,95.90
2022-09-09T17:59:16.054Z,91.28
2022-09-09T18:01:46.241Z,90.03
2022-09-09T18:04:15.549Z,95.93
2022-09-09T18:06:46.541Z,97.38
2022-09-09T18:09:19.760Z,99.63
2022-09-09T18:11:50.161Z,94.40
2022-09-09T18:14:20.474Z,95.63
2022-09-09T18:16:48.910Z,93.88
2022-09-09T18:19:21.811Z,99.30
2022-09-09T18:21:49.786Z,96.30
2022-09-09T18:24:18.969Z,94.35
2022-09-09T18:26:48.346Z,93.38
2022-09-09T18:29:20.113Z,90.85
2022-09-09T18:31:48.547Z,93.65
2022-09-09T18:34:18.901Z,95.60
2022-09-09T18:36:48.959Z,93.10
2022-09-09T18:39:18.800Z,95.93
2022-09-09T18:41:52.355Z,92.00
2022-09-09T18:46:49.345Z,91.72
2022-09-09T18:49:17.000Z,91.20
2022-09-09T18:51:46.655Z,89.35
2022-09-09T18:54:20.884Z,91.75
2022-09-09T18:56:48.970Z,95.30
2022-09-09T18:59:21.895Z,92.35
2022-09-09T19:02:04.592Z,64.80
2022-09-09T19:04:33.216Z,96.90
2022-09-09T19:07:00.899Z,91.65
2022-09-09T19:09:31.847Z,98.63
2022-09-09T19:12:01.055Z,92.20
2022-09-09T19:14:29.385Z,94.97
2022-09-09T19:16:56.981Z,93.10
2022-09-09T19:19:27.266Z,94.78
2022-09-09T19:21:58.026Z,95.05
2022-09-09T19:24:28.398Z,96.95
2022-09-09T19:26:58.951Z,95.82
2022-09-09T19:29:31.133Z,97.68
2022-09-09T19:34:55.911Z,95.18
2022-09-09T19:37:23.294Z,94.82
2022-09-09T19:39:50.847Z,98.78
2022-09-09T19:42:18.343Z,100.43
2022-09-09T19:44:46.661Z,96.47
2022-09-09T19:47:15.269Z,92.93
2022-09-09T19:49:46.757Z,95.15
2022-09-09T19:52:16.078Z,94.78
2022-09-09T19:54:43.601Z,98.30
2022-09-09T19:57:11.553Z,98.00
2022-09-09T19:59:38.872Z,95.15
2022-09-09T20:02:06.341Z,97.50
2022-09-09T20:04:35.381Z,98.35
2022-09-09T20:07:02.787Z,96.07
2022-09-09T20:09:30.614Z,94.40
2022-09-09T20:11:58.039Z,95.72
2022-09-09T20:14:25.498Z,95.68
2022-09-09T20:16:52.989Z,96.88
2022-09-09T20:19:20.286Z,97.85
2022-09-09T20:21:49.633Z,102.15
2022-09-09T20:24:19.789Z,99.30
2022-09-09T20:26:49.098Z,97.10
2022-09-09T20:29:20.036Z,99.97
2022-09-09T20:31:48.465Z,99.43
2022-09-09T20:34:19.153Z,96.68
2022-09-09T20:36:47.371Z,97.10
2022-09-09T20:39:22.691Z,95.65
2022-09-09T20:41:50.533Z,100.20
2022-09-09T20:44:22.470Z,100.30
2022-09-09T20:46:56.329Z,96.68
2022-09-09T20:49:24.543Z,97.65
2022-09-09T20:51:53.423Z,97.22
2022-09-09T20:54:26.541Z,99.90
2022-09-09T20:56:55.532Z,105.45
2022-09-09T20:59:24.795Z,99.32
2022-09-09T21:01:53.288Z,105.00
2022-09-09T21:04:22.364Z,99.35
2022-09-09T21:06:51.313Z,100.43
2022-09-09T21:09:19.573Z,97.80
2022-09-09T21:11:47.380Z,101.60
2022-09-09T21:14:15.015Z,97.82
2022-09-09T21:16:42.421Z,101.15
2022-09-09T21:19:09.718Z,98.90
2022-09-09T21:21:37.394Z,98.50
2022-09-09T21:24:04.921Z,97.90
2022-09-09T21:26:32.286Z,99.78
2022-09-09T21:28:59.659Z,98.90
2022-09-09T21:31:28.215Z,96.68
2022-09-09T21:34:00.139Z,98.93
2022-09-09T21:36:28.695Z,102.78
2022-09-09T21:38:59.299Z,99.32
2022-09-09T21:41:26.829Z,98.38
2022-09-09T21:43:54.903Z,99.70
2022-09-09T21:46:23.679Z,102.63
2022-09-09T21:48:51.182Z,101.65
2022-09-09T21:51:19.391Z,101.03
2022-09-09T21:53:46.764Z,95.80
2022-09-09T21:56:19.180Z,98.57
2022-09-09T21:58:47.430Z,98.82
2022-09-09T22:01:17.087Z,95.47
2022-09-09T22:03:45.864Z,105.63
2022-09-09T22:06:18.775Z,99.80
2022-09-09T22:08:47.138Z,100.25
2022-09-09T22:11:20.761Z,99.38
2022-09-09T22:13:48.475Z,96.30
2022-09-09T22:16:19.207Z,96.57
2022-09-09T22:18:52.764Z,95.90
2022-09-09T22:23:55.536Z,99.13
2022-09-09T22:26:24.178Z,98.07
2022-09-09T22:28:54.018Z,95.30
2022-09-09T22:31:23.029Z,96.65
2022-09-09T22:33:51.956Z,100.70
2022-09-09T22:36:20.497Z,96.50
2022-09-09T22:38:51.989Z,95.18
2022-09-09T22:41:20.437Z,95.47
2022-09-09T22:43:48.547Z,100.22
2022-09-09T22:46:16.600Z,95.85
2022-09-09T22:48:44.002Z,100.90
2022-09-09T22:51:14.379Z,103.20
2022-09-09T22:53:43.183Z,101.68
2022-09-09T22:56:17.410Z,97.47
2022-09-09T22:58:46.251Z,101.45
2022-09-09T23:01:24.217Z,104.80
2022-09-09T23:03:52.237Z,101.60
2022-09-09T23:06:22.623Z,104.35
2022-09-09T23:08:53.867Z,106.65
2022-09-09T23:11:21.655Z,97.68
2022-09-09T23:13:52.700Z,101.05
2022-09-09T23:16:23.969Z,96.10
2022-09-09T23:18:58.187Z,102.35
2022-09-09T23:21:28.378Z,95.50
2022-09-09T23:23:57.402Z,98.22
2022-09-09T23:26:26.757Z,100.82
2022-09-09T23:28:56.103Z,95.25
2022-09-09T23:31:25.037Z,99.30
2022-09-09T23:33:54.551Z,102.00
2022-09-09T23:36:24.987Z,100.18
2022-09-09T23:38:54.619Z,100.57
2022-09-09T23:41:22.471Z,100.10
2022-09-09T23:43:52.369Z,96.68
2022-09-09T23:46:23.953Z,98.32
2022-09-09T23:48:51.970Z,98.15
2022-09-09T23:51:24.199Z,97.45
2022-09-09T23:53:54.135Z,72.07
2022-09-09T23:56:23.399Z,95.22
2022-09-09T23:58:53.770Z,95.10
